sensor_id;sensor_type;location;lat;lon;timestamp;P1;durP1;ratioP1;P2;durP2;ratioP2
51862;SDS011;37900;52.996;6.278;2023-01-08T00:02:20;8.95;;;5.20;;
51862;SDS011;37900;52.996;6.278;2023-01-08T00:04:46;9.60;;;4.80;;
51862;SDS011;37900;52.996;6.278;2023-01-08T00:07:12;9.25;;;4.93;;
51862;SDS011;37900;52.996;6.278;2023-01-08T00:09:37;8.90;;;5.03;;
51862;SDS011;37900;52.996;6.278;2023-01-08T00:12:03;8.25;;;4.70;;
51862;SDS011;37900;52.996;6.278;2023-01-08T00:14:29;8.52;;;4.38;;
51862;SDS011;37900;52.996;6.278;2023-01-08T00:16:55;8.15;;;4.63;;
51862;SDS011;37900;52.996;6.278;2023-01-08T00:19:20;9.50;;;4.80;;
51862;SDS011;37900;52.996;6.278;2023-01-08T00:21:46;7.65;;;4.70;;
51862;SDS011;37900;52.996;6.278;2023-01-08T00:24:12;10.43;;;4.75;;
51862;SDS011;37900;52.996;6.278;2023-01-08T00:26:37;8.90;;;4.80;;
51862;SDS011;37900;52.996;6.278;2023-01-08T00:29:03;7.80;;;4.45;;
51862;SDS011;37900;52.996;6.278;2023-01-08T00:31:29;10.90;;;4.60;;
51862;SDS011;37900;52.996;6.278;2023-01-08T00:33:55;8.52;;;4.75;;
51862;SDS011;37900;52.996;6.278;2023-01-08T00:36:20;9.75;;;4.60;;
51862;SDS011;37900;52.996;6.278;2023-01-08T00:38:46;12.90;;;4.78;;
51862;SDS011;37900;52.996;6.278;2023-01-08T00:41:13;8.57;;;5.00;;
51862;SDS011;37900;52.996;6.278;2023-01-08T00:46:05;9.77;;;4.45;;
51862;SDS011;37900;52.996;6.278;2023-01-08T00:48:32;8.80;;;4.70;;
51862;SDS011;37900;52.996;6.278;2023-01-08T00:51:01;8.45;;;4.45;;
51862;SDS011;37900;52.996;6.278;2023-01-08T00:53:27;8.43;;;4.38;;
51862;SDS011;37900;52.996;6.278;2023-01-08T00:56:00;6.85;;;4.47;;
51862;SDS011;37900;52.996;6.278;2023-01-08T00:58:27;7.85;;;4.90;;
51862;SDS011;37900;52.996;6.278;2023-01-08T01:00:53;8.48;;;4.38;;
51862;SDS011;37900;52.996;6.278;2023-01-08T01:03:18;8.95;;;4.22;;
51862;SDS011;37900;52.996;6.278;2023-01-08T01:05:44;9.27;;;4.50;;
51862;SDS011;37900;52.996;6.278;2023-01-08T01:08:10;8.25;;;3.90;;
51862;SDS011;37900;52.996;6.278;2023-01-08T01:10:37;6.25;;;4.00;;
51862;SDS011;37900;52.996;6.278;2023-01-08T01:13:04;8.35;;;4.57;;
51862;SDS011;37900;52.996;6.278;2023-01-08T01:15:29;6.70;;;4.30;;
51862;SDS011;37900;52.996;6.278;2023-01-08T01:17:55;6.05;;;3.85;;
51862;SDS011;37900;52.996;6.278;2023-01-08T01:20:21;7.40;;;4.53;;
51862;SDS011;37900;52.996;6.278;2023-01-08T01:22:48;7.23;;;4.10;;
51862;SDS011;37900;52.996;6.278;2023-01-08T01:25:14;8.05;;;4.30;;
51862;SDS011;37900;52.996;6.278;2023-01-08T01:27:40;5.75;;;3.90;;
51862;SDS011;37900;52.996;6.278;2023-01-08T01:30:06;6.07;;;4.25;;
51862;SDS011;37900;52.996;6.278;2023-01-08T01:32:33;5.63;;;3.78;;
51862;SDS011;37900;52.996;6.278;2023-01-08T01:34:59;5.93;;;3.88;;
51862;SDS011;37900;52.996;6.278;2023-01-08T01:37:25;8.23;;;4.47;;
51862;SDS011;37900;52.996;6.278;2023-01-08T01:39:51;6.57;;;3.53;;
51862;SDS011;37900;52.996;6.278;2023-01-08T01:42:18;5.38;;;4.28;;
51862;SDS011;37900;52.996;6.278;2023-01-08T01:45:05;6.95;;;3.95;;
51862;SDS011;37900;52.996;6.278;2023-01-08T01:47:46;6.90;;;3.72;;
51862;SDS011;37900;52.996;6.278;2023-01-08T01:55:23;5.65;;;3.70;;
51862;SDS011;37900;52.996;6.278;2023-01-08T01:57:52;6.75;;;3.75;;
51862;SDS011;37900;52.996;6.278;2023-01-08T02:00:32;6.35;;;3.58;;
51862;SDS011;37900;52.996;6.278;2023-01-08T02:02:59;5.03;;;3.58;;
51862;SDS011;37900;52.996;6.278;2023-01-08T02:05:26;6.40;;;3.83;;
51862;SDS011;37900;52.996;6.278;2023-01-08T02:08:01;5.68;;;4.03;;
51862;SDS011;37900;52.996;6.278;2023-01-08T02:13:28;7.13;;;3.20;;
51862;SDS011;37900;52.996;6.278;2023-01-08T02:15:56;7.75;;;4.18;;
51862;SDS011;37900;52.996;6.278;2023-01-08T02:21:02;4.40;;;3.85;;
51862;SDS011;37900;52.996;6.278;2023-01-08T02:31:19;7.07;;;3.65;;
51862;SDS011;37900;52.996;6.278;2023-01-08T02:33:47;6.60;;;3.20;;
51862;SDS011;37900;52.996;6.278;2023-01-08T02:39:03;5.03;;;3.50;;
51862;SDS011;37900;52.996;6.278;2023-01-08T02:42:38;7.57;;;3.47;;
51862;SDS011;37900;52.996;6.278;2023-01-08T02:44:50;5.18;;;3.63;;
51862;SDS011;37900;52.996;6.278;2023-01-08T02:47:24;5.70;;;3.47;;
51862;SDS011;37900;52.996;6.278;2023-01-08T02:50:08;6.88;;;3.70;;
51862;SDS011;37900;52.996;6.278;2023-01-08T02:52:45;6.72;;;3.83;;
51862;SDS011;37900;52.996;6.278;2023-01-08T02:55:19;4.82;;;3.05;;
51862;SDS011;37900;52.996;6.278;2023-01-08T02:57:47;5.32;;;3.05;;
51862;SDS011;37900;52.996;6.278;2023-01-08T03:00:13;6.25;;;3.42;;
51862;SDS011;37900;52.996;6.278;2023-01-08T03:02:40;5.65;;;3.30;;
51862;SDS011;37900;52.996;6.278;2023-01-08T03:05:13;5.50;;;3.20;;
51862;SDS011;37900;52.996;6.278;2023-01-08T03:07:45;5.63;;;3.20;;
51862;SDS011;37900;52.996;6.278;2023-01-08T03:10:11;5.72;;;3.33;;
51862;SDS011;37900;52.996;6.278;2023-01-08T03:15:06;5.45;;;3.47;;
51862;SDS011;37900;52.996;6.278;2023-01-08T03:17:47;5.13;;;3.30;;
51862;SDS011;37900;52.996;6.278;2023-01-08T03:20:15;4.50;;;3.00;;
51862;SDS011;37900;52.996;6.278;2023-01-08T03:22:44;4.95;;;3.28;;
51862;SDS011;37900;52.996;6.278;2023-01-08T03:25:13;4.68;;;3.05;;
51862;SDS011;37900;52.996;6.278;2023-01-08T03:27:42;7.47;;;3.15;;
51862;SDS011;37900;52.996;6.278;2023-01-08T03:30:10;5.50;;;2.95;;
51862;SDS011;37900;52.996;6.278;2023-01-08T03:32:37;4.40;;;3.40;;
51862;SDS011;37900;52.996;6.278;2023-01-08T03:35:06;4.85;;;3.83;;
51862;SDS011;37900;52.996;6.278;2023-01-08T03:37:36;5.25;;;3.22;;
51862;SDS011;37900;52.996;6.278;2023-01-08T03:42:51;4.63;;;2.95;;
51862;SDS011;37900;52.996;6.278;2023-01-08T03:45:17;4.82;;;3.40;;
51862;SDS011;37900;52.996;6.278;2023-01-08T03:47:45;5.25;;;3.13;;
51862;SDS011;37900;52.996;6.278;2023-01-08T03:50:14;5.03;;;3.15;;
51862;SDS011;37900;52.996;6.278;2023-01-08T03:52:44;4.40;;;2.65;;
51862;SDS011;37900;52.996;6.278;2023-01-08T03:55:09;4.63;;;2.92;;
51862;SDS011;37900;52.996;6.278;2023-01-08T03:57:35;4.82;;;3.08;;
51862;SDS011;37900;52.996;6.278;2023-01-08T04:00:01;5.32;;;3.50;;
51862;SDS011;37900;52.996;6.278;2023-01-08T04:02:27;5.00;;;2.78;;
51862;SDS011;37900;52.996;6.278;2023-01-08T04:04:53;4.32;;;3.05;;
51862;SDS011;37900;52.996;6.278;2023-01-08T04:07:19;4.32;;;3.28;;
51862;SDS011;37900;52.996;6.278;2023-01-08T04:09:45;4.63;;;2.88;;
51862;SDS011;37900;52.996;6.278;2023-01-08T04:12:11;6.50;;;3.10;;
51862;SDS011;37900;52.996;6.278;2023-01-08T04:14:37;4.00;;;2.97;;
51862;SDS011;37900;52.996;6.278;2023-01-08T04:17:02;6.63;;;2.80;;
51862;SDS011;37900;52.996;6.278;2023-01-08T04:19:28;5.10;;;3.10;;
51862;SDS011;37900;52.996;6.278;2023-01-08T04:21:54;3.80;;;2.63;;
51862;SDS011;37900;52.996;6.278;2023-01-08T04:24:19;6.20;;;3.15;;
51862;SDS011;37900;52.996;6.278;2023-01-08T04:26:45;4.93;;;2.33;;
51862;SDS011;37900;52.996;6.278;2023-01-08T04:29:11;3.50;;;2.63;;
51862;SDS011;37900;52.996;6.278;2023-01-08T04:31:37;5.47;;;2.50;;
51862;SDS011;37900;52.996;6.278;2023-01-08T04:34:03;5.07;;;2.95;;
51862;SDS011;37900;52.996;6.278;2023-01-08T04:36:29;5.25;;;2.63;;
51862;SDS011;37900;52.996;6.278;2023-01-08T04:38:54;5.18;;;2.63;;
51862;SDS011;37900;52.996;6.278;2023-01-08T04:41:20;3.60;;;2.65;;
51862;SDS011;37900;52.996;6.278;2023-01-08T04:43:46;5.85;;;3.15;;
51862;SDS011;37900;52.996;6.278;2023-01-08T04:46:11;4.25;;;2.75;;
51862;SDS011;37900;52.996;6.278;2023-01-08T04:48:37;4.32;;;2.83;;
51862;SDS011;37900;52.996;6.278;2023-01-08T04:51:03;6.07;;;3.40;;
51862;SDS011;37900;52.996;6.278;2023-01-08T04:53:31;4.38;;;2.83;;
51862;SDS011;37900;52.996;6.278;2023-01-08T04:56:06;4.03;;;2.75;;
51862;SDS011;37900;52.996;6.278;2023-01-08T04:58:34;4.75;;;2.63;;
51862;SDS011;37900;52.996;6.278;2023-01-08T05:01:00;4.10;;;2.70;;
51862;SDS011;37900;52.996;6.278;2023-01-08T05:03:33;4.72;;;2.78;;
51862;SDS011;37900;52.996;6.278;2023-01-08T05:05:59;3.40;;;2.67;;
51862;SDS011;37900;52.996;6.278;2023-01-08T05:08:25;5.10;;;3.15;;
51862;SDS011;37900;52.996;6.278;2023-01-08T05:10:50;4.70;;;2.50;;
51862;SDS011;37900;52.996;6.278;2023-01-08T05:13:16;4.28;;;2.70;;
51862;SDS011;37900;52.996;6.278;2023-01-08T05:15:42;4.05;;;2.50;;
51862;SDS011;37900;52.996;6.278;2023-01-08T05:18:08;5.00;;;3.15;;
51862;SDS011;37900;52.996;6.278;2023-01-08T05:20:34;4.03;;;2.80;;
51862;SDS011;37900;52.996;6.278;2023-01-08T05:23:00;4.38;;;2.67;;
51862;SDS011;37900;52.996;6.278;2023-01-08T05:25:26;4.28;;;2.63;;
51862;SDS011;37900;52.996;6.278;2023-01-08T05:27:52;3.42;;;2.45;;
51862;SDS011;37900;52.996;6.278;2023-01-08T05:30:17;3.95;;;2.55;;
51862;SDS011;37900;52.996;6.278;2023-01-08T05:32:43;2.80;;;2.10;;
51862;SDS011;37900;52.996;6.278;2023-01-08T05:35:09;4.53;;;2.60;;
51862;SDS011;37900;52.996;6.278;2023-01-08T05:37:36;4.43;;;2.70;;
51862;SDS011;37900;52.996;6.278;2023-01-08T05:40:02;5.35;;;2.63;;
51862;SDS011;37900;52.996;6.278;2023-01-08T05:44:57;5.27;;;2.87;;
51862;SDS011;37900;52.996;6.278;2023-01-08T05:47:23;3.50;;;2.38;;
51862;SDS011;37900;52.996;6.278;2023-01-08T05:49:48;3.75;;;2.35;;
51862;SDS011;37900;52.996;6.278;2023-01-08T05:52:14;3.38;;;2.28;;
51862;SDS011;37900;52.996;6.278;2023-01-08T05:54:40;2.95;;;2.17;;
51862;SDS011;37900;52.996;6.278;2023-01-08T05:57:05;5.18;;;2.35;;
51862;SDS011;37900;52.996;6.278;2023-01-08T05:59:31;2.90;;;2.40;;
51862;SDS011;37900;52.996;6.278;2023-01-08T06:01:57;3.33;;;2.65;;
51862;SDS011;37900;52.996;6.278;2023-01-08T06:04:23;4.70;;;2.53;;
51862;SDS011;37900;52.996;6.278;2023-01-08T06:06:48;2.75;;;2.15;;
51862;SDS011;37900;52.996;6.278;2023-01-08T06:09:14;3.83;;;2.45;;
51862;SDS011;37900;52.996;6.278;2023-01-08T06:11:40;4.28;;;2.47;;
51862;SDS011;37900;52.996;6.278;2023-01-08T06:14:05;4.50;;;2.67;;
51862;SDS011;37900;52.996;6.278;2023-01-08T06:16:31;4.13;;;2.63;;
51862;SDS011;37900;52.996;6.278;2023-01-08T06:18:57;2.85;;;2.22;;
51862;SDS011;37900;52.996;6.278;2023-01-08T06:21:22;3.28;;;2.25;;
51862;SDS011;37900;52.996;6.278;2023-01-08T06:23:48;4.20;;;2.47;;
51862;SDS011;37900;52.996;6.278;2023-01-08T06:26:14;3.05;;;2.47;;
51862;SDS011;37900;52.996;6.278;2023-01-08T06:28:39;5.38;;;2.80;;
51862;SDS011;37900;52.996;6.278;2023-01-08T06:31:05;3.90;;;2.40;;
51862;SDS011;37900;52.996;6.278;2023-01-08T06:33:31;3.03;;;2.08;;
51862;SDS011;37900;52.996;6.278;2023-01-08T06:36:00;3.55;;;2.60;;
51862;SDS011;37900;52.996;6.278;2023-01-08T06:38:34;5.03;;;2.25;;
51862;SDS011;37900;52.996;6.278;2023-01-08T06:41:08;2.58;;;2.13;;
51862;SDS011;37900;52.996;6.278;2023-01-08T06:43:35;2.92;;;2.38;;
51862;SDS011;37900;52.996;6.278;2023-01-08T06:46:02;3.72;;;2.55;;
51862;SDS011;37900;52.996;6.278;2023-01-08T06:48:29;4.53;;;2.03;;
51862;SDS011;37900;52.996;6.278;2023-01-08T06:50:57;3.80;;;2.22;;
51862;SDS011;37900;52.996;6.278;2023-01-08T06:53:27;3.90;;;2.85;;
51862;SDS011;37900;52.996;6.278;2023-01-08T06:55:53;4.30;;;2.15;;
51862;SDS011;37900;52.996;6.278;2023-01-08T07:00:47;2.80;;;2.38;;
51862;SDS011;37900;52.996;6.278;2023-01-08T07:03:12;4.70;;;2.53;;
51862;SDS011;37900;52.996;6.278;2023-01-08T07:05:38;3.13;;;2.53;;
51862;SDS011;37900;52.996;6.278;2023-01-08T07:08:04;3.47;;;2.30;;
51862;SDS011;37900;52.996;6.278;2023-01-08T07:10:30;4.38;;;2.20;;
51862;SDS011;37900;52.996;6.278;2023-01-08T07:12:56;3.53;;;2.10;;
51862;SDS011;37900;52.996;6.278;2023-01-08T07:15:22;2.85;;;2.20;;
51862;SDS011;37900;52.996;6.278;2023-01-08T07:17:48;3.03;;;2.30;;
51862;SDS011;37900;52.996;6.278;2023-01-08T07:20:13;2.45;;;2.03;;
51862;SDS011;37900;52.996;6.278;2023-01-08T07:22:39;2.80;;;2.10;;
51862;SDS011;37900;52.996;6.278;2023-01-08T07:25:05;3.05;;;1.95;;
51862;SDS011;37900;52.996;6.278;2023-01-08T07:27:31;2.03;;;1.83;;
51862;SDS011;37900;52.996;6.278;2023-01-08T07:29:57;3.00;;;2.20;;
51862;SDS011;37900;52.996;6.278;2023-01-08T07:32:22;3.25;;;2.10;;
51862;SDS011;37900;52.996;6.278;2023-01-08T07:34:48;3.95;;;2.33;;
51862;SDS011;37900;52.996;6.278;2023-01-08T07:37:14;2.50;;;2.03;;
51862;SDS011;37900;52.996;6.278;2023-01-08T07:39:39;3.85;;;2.47;;
51862;SDS011;37900;52.996;6.278;2023-01-08T07:42:05;2.58;;;2.10;;
51862;SDS011;37900;52.996;6.278;2023-01-08T07:44:31;3.15;;;2.40;;
51862;SDS011;37900;52.996;6.278;2023-01-08T07:46:57;2.00;;;1.73;;
51862;SDS011;37900;52.996;6.278;2023-01-08T07:49:23;3.47;;;2.13;;
51862;SDS011;37900;52.996;6.278;2023-01-08T07:51:48;2.35;;;2.00;;
51862;SDS011;37900;52.996;6.278;2023-01-08T07:54:14;2.22;;;1.70;;
51862;SDS011;37900;52.996;6.278;2023-01-08T07:56:40;2.70;;;1.95;;
51862;SDS011;37900;52.996;6.278;2023-01-08T07:59:05;2.35;;;2.00;;
51862;SDS011;37900;52.996;6.278;2023-01-08T08:01:31;3.75;;;2.40;;
51862;SDS011;37900;52.996;6.278;2023-01-08T08:03:57;4.03;;;2.10;;
51862;SDS011;37900;52.996;6.278;2023-01-08T08:06:22;2.30;;;2.00;;
51862;SDS011;37900;52.996;6.278;2023-01-08T08:08:48;4.38;;;2.13;;
51862;SDS011;37900;52.996;6.278;2023-01-08T08:11:14;3.45;;;2.10;;
51862;SDS011;37900;52.996;6.278;2023-01-08T08:13:39;3.38;;;2.15;;
51862;SDS011;37900;52.996;6.278;2023-01-08T08:16:08;2.92;;;2.10;;
51862;SDS011;37900;52.996;6.278;2023-01-08T08:18:35;3.20;;;2.00;;
51862;SDS011;37900;52.996;6.278;2023-01-08T08:21:01;3.10;;;1.98;;
51862;SDS011;37900;52.996;6.278;2023-01-08T08:23:27;2.08;;;1.70;;
51862;SDS011;37900;52.996;6.278;2023-01-08T08:25:53;3.38;;;2.03;;
51862;SDS011;37900;52.996;6.278;2023-01-08T08:28:19;3.15;;;2.05;;
51862;SDS011;37900;52.996;6.278;2023-01-08T08:30:45;2.67;;;1.90;;
51862;SDS011;37900;52.996;6.278;2023-01-08T08:33:11;3.13;;;1.90;;
51862;SDS011;37900;52.996;6.278;2023-01-08T08:35:37;3.58;;;2.47;;
51862;SDS011;37900;52.996;6.278;2023-01-08T08:38:03;2.85;;;1.98;;
51862;SDS011;37900;52.996;6.278;2023-01-08T08:40:29;3.72;;;2.15;;
51862;SDS011;37900;52.996;6.278;2023-01-08T08:42:56;2.88;;;1.75;;
51862;SDS011;37900;52.996;6.278;2023-01-08T08:45:22;2.72;;;1.95;;
51862;SDS011;37900;52.996;6.278;2023-01-08T08:47:48;3.28;;;2.10;;
51862;SDS011;37900;52.996;6.278;2023-01-08T08:50:14;2.75;;;1.70;;
51862;SDS011;37900;52.996;6.278;2023-01-08T08:52:40;2.38;;;2.00;;
51862;SDS011;37900;52.996;6.278;2023-01-08T08:55:08;2.03;;;1.63;;
51862;SDS011;37900;52.996;6.278;2023-01-08T08:57:37;2.60;;;1.90;;
51862;SDS011;37900;52.996;6.278;2023-01-08T09:00:02;4.18;;;2.13;;
51862;SDS011;37900;52.996;6.278;2023-01-08T09:02:28;2.17;;;1.77;;
51862;SDS011;37900;52.996;6.278;2023-01-08T09:04:54;2.85;;;1.88;;
51862;SDS011;37900;52.996;6.278;2023-01-08T09:07:20;2.08;;;1.70;;
51862;SDS011;37900;52.996;6.278;2023-01-08T09:09:45;2.40;;;2.05;;
51862;SDS011;37900;52.996;6.278;2023-01-08T09:12:11;3.10;;;2.08;;
51862;SDS011;37900;52.996;6.278;2023-01-08T09:14:37;4.47;;;2.20;;
51862;SDS011;37900;52.996;6.278;2023-01-08T09:17:03;8.43;;;2.50;;
51862;SDS011;37900;52.996;6.278;2023-01-08T09:19:28;3.90;;;2.70;;
51862;SDS011;37900;52.996;6.278;2023-01-08T09:21:54;5.55;;;3.08;;
51862;SDS011;37900;52.996;6.278;2023-01-08T09:24:20;6.20;;;2.35;;
51862;SDS011;37900;52.996;6.278;2023-01-08T09:26:45;6.50;;;2.38;;
51862;SDS011;37900;52.996;6.278;2023-01-08T09:29:11;4.43;;;2.45;;
51862;SDS011;37900;52.996;6.278;2023-01-08T09:31:37;4.60;;;2.85;;
51862;SDS011;37900;52.996;6.278;2023-01-08T09:34:02;4.25;;;2.53;;
51862;SDS011;37900;52.996;6.278;2023-01-08T09:36:28;4.35;;;2.63;;
51862;SDS011;37900;52.996;6.278;2023-01-08T09:38:54;4.72;;;2.50;;
51862;SDS011;37900;52.996;6.278;2023-01-08T09:41:24;3.38;;;2.38;;
51862;SDS011;37900;52.996;6.278;2023-01-08T09:43:54;5.63;;;2.97;;
51862;SDS011;37900;52.996;6.278;2023-01-08T09:46:23;4.10;;;3.03;;
51862;SDS011;37900;52.996;6.278;2023-01-08T09:48:52;4.00;;;2.47;;
51862;SDS011;37900;52.996;6.278;2023-01-08T09:51:21;4.20;;;2.40;;
51862;SDS011;37900;52.996;6.278;2023-01-08T09:53:54;3.53;;;2.80;;
51862;SDS011;37900;52.996;6.278;2023-01-08T09:56:21;4.45;;;2.13;;
51862;SDS011;37900;52.996;6.278;2023-01-08T09:58:48;3.42;;;2.58;;
51862;SDS011;37900;52.996;6.278;2023-01-08T10:01:17;4.13;;;2.92;;
51862;SDS011;37900;52.996;6.278;2023-01-08T10:03:52;4.25;;;2.67;;
51862;SDS011;37900;52.996;6.278;2023-01-08T10:06:23;3.72;;;2.42;;
51862;SDS011;37900;52.996;6.278;2023-01-08T10:08:50;4.57;;;2.47;;
51862;SDS011;37900;52.996;6.278;2023-01-08T10:11:16;3.47;;;2.23;;
51862;SDS011;37900;52.996;6.278;2023-01-08T10:13:47;5.60;;;2.80;;
51862;SDS011;37900;52.996;6.278;2023-01-08T10:16:27;4.15;;;2.47;;
51862;SDS011;37900;52.996;6.278;2023-01-08T10:18:55;4.10;;;2.38;;
51862;SDS011;37900;52.996;6.278;2023-01-08T10:21:29;4.13;;;2.22;;
51862;SDS011;37900;52.996;6.278;2023-01-08T10:24:00;3.50;;;2.30;;
51862;SDS011;37900;52.996;6.278;2023-01-08T10:26:30;3.40;;;2.47;;
51862;SDS011;37900;52.996;6.278;2023-01-08T10:34:10;3.17;;;2.22;;
51862;SDS011;37900;52.996;6.278;2023-01-08T10:36:42;4.45;;;2.53;;
51862;SDS011;37900;52.996;6.278;2023-01-08T10:39:12;3.15;;;2.22;;
51862;SDS011;37900;52.996;6.278;2023-01-08T10:41:48;4.30;;;2.60;;
51862;SDS011;37900;52.996;6.278;2023-01-08T10:44:17;3.42;;;2.45;;
51862;SDS011;37900;52.996;6.278;2023-01-08T10:46:47;4.40;;;2.67;;
51862;SDS011;37900;52.996;6.278;2023-01-08T10:49:28;6.68;;;3.13;;
51862;SDS011;37900;52.996;6.278;2023-01-08T10:51:57;4.13;;;2.88;;
51862;SDS011;37900;52.996;6.278;2023-01-08T10:57:00;4.20;;;2.50;;
51862;SDS011;37900;52.996;6.278;2023-01-08T10:59:27;3.58;;;2.30;;
51862;SDS011;37900;52.996;6.278;2023-01-08T11:01:53;5.43;;;2.70;;
51862;SDS011;37900;52.996;6.278;2023-01-08T11:04:30;4.53;;;2.63;;
51862;SDS011;37900;52.996;6.278;2023-01-08T11:09:31;4.45;;;2.30;;
51862;SDS011;37900;52.996;6.278;2023-01-08T11:12:27;4.47;;;2.60;;
51862;SDS011;37900;52.996;6.278;2023-01-08T11:14:58;3.40;;;2.40;;
51862;SDS011;37900;52.996;6.278;2023-01-08T11:17:24;4.15;;;2.63;;
51862;SDS011;37900;52.996;6.278;2023-01-08T11:19:51;4.25;;;3.22;;
51862;SDS011;37900;52.996;6.278;2023-01-08T11:22:22;3.73;;;2.77;;
51862;SDS011;37900;52.996;6.278;2023-01-08T11:24:49;3.42;;;2.50;;
51862;SDS011;37900;52.996;6.278;2023-01-08T11:35:27;3.78;;;2.85;;
51862;SDS011;37900;52.996;6.278;2023-01-08T11:38:02;3.83;;;2.38;;
51862;SDS011;37900;52.996;6.278;2023-01-08T11:48:29;2.67;;;2.00;;
51862;SDS011;37900;52.996;6.278;2023-01-08T12:08:11;10.77;;;3.50;;
51862;SDS011;37900;52.996;6.278;2023-01-08T12:13:22;8.85;;;3.50;;
51862;SDS011;37900;52.996;6.278;2023-01-08T12:16:10;6.45;;;3.40;;
51862;SDS011;37900;52.996;6.278;2023-01-08T12:32:48;9.75;;;3.40;;
51862;SDS011;37900;52.996;6.278;2023-01-08T12:35:16;6.05;;;2.53;;
51862;SDS011;37900;52.996;6.278;2023-01-08T12:40:49;8.95;;;2.83;;
51862;SDS011;37900;52.996;6.278;2023-01-08T12:43:22;4.20;;;2.70;;
51862;SDS011;37900;52.996;6.278;2023-01-08T12:46:05;4.95;;;2.90;;
51862;SDS011;37900;52.996;6.278;2023-01-08T12:48:35;6.93;;;3.00;;
51862;SDS011;37900;52.996;6.278;2023-01-08T12:59:05;4.28;;;2.60;;
51862;SDS011;37900;52.996;6.278;2023-01-08T13:04:14;3.70;;;2.65;;
51862;SDS011;37900;52.996;6.278;2023-01-08T13:09:27;6.78;;;2.25;;
51862;SDS011;37900;52.996;6.278;2023-01-08T13:11:55;4.05;;;1.90;;
51862;SDS011;37900;52.996;6.278;2023-01-08T13:14:22;6.25;;;3.20;;
51862;SDS011;37900;52.996;6.278;2023-01-08T13:17:13;5.63;;;2.25;;
51862;SDS011;37900;52.996;6.278;2023-01-08T13:19:44;5.22;;;2.33;;
51862;SDS011;37900;52.996;6.278;2023-01-08T13:22:20;4.43;;;2.30;;
51862;SDS011;37900;52.996;6.278;2023-01-08T13:24:49;6.35;;;2.83;;
51862;SDS011;37900;52.996;6.278;2023-01-08T13:29:42;5.03;;;2.65;;
51862;SDS011;37900;52.996;6.278;2023-01-08T13:32:22;4.55;;;2.55;;
51862;SDS011;37900;52.996;6.278;2023-01-08T13:37:26;6.47;;;2.53;;
51862;SDS011;37900;52.996;6.278;2023-01-08T13:39:51;5.35;;;2.85;;
51862;SDS011;37900;52.996;6.278;2023-01-08T13:42:24;5.00;;;2.47;;
51862;SDS011;37900;52.996;6.278;2023-01-08T13:44:57;6.13;;;2.22;;
51862;SDS011;37900;52.996;6.278;2023-01-08T13:47:34;4.80;;;2.20;;
51862;SDS011;37900;52.996;6.278;2023-01-08T13:50:20;3.17;;;2.42;;
51862;SDS011;37900;52.996;6.278;2023-01-08T13:52:48;4.05;;;2.38;;
51862;SDS011;37900;52.996;6.278;2023-01-08T13:55:29;3.97;;;2.35;;
51862;SDS011;37900;52.996;6.278;2023-01-08T13:58:00;4.63;;;2.83;;
51862;SDS011;37900;52.996;6.278;2023-01-08T14:00:43;4.57;;;2.28;;
51862;SDS011;37900;52.996;6.278;2023-01-08T14:03:25;4.00;;;2.03;;
51862;SDS011;37900;52.996;6.278;2023-01-08T14:11:24;3.45;;;2.28;;
51862;SDS011;37900;52.996;6.278;2023-01-08T14:13:54;2.78;;;1.90;;
51862;SDS011;37900;52.996;6.278;2023-01-08T14:16:20;3.80;;;2.03;;
51862;SDS011;37900;52.996;6.278;2023-01-08T14:18:47;3.75;;;2.42;;
51862;SDS011;37900;52.996;6.278;2023-01-08T14:21:14;3.78;;;2.25;;
51862;SDS011;37900;52.996;6.278;2023-01-08T14:23:45;4.40;;;2.42;;
51862;SDS011;37900;52.996;6.278;2023-01-08T14:29:11;4.30;;;2.53;;
51862;SDS011;37900;52.996;6.278;2023-01-08T14:31:44;2.85;;;2.00;;
51862;SDS011;37900;52.996;6.278;2023-01-08T14:34:11;3.92;;;2.13;;
51862;SDS011;37900;52.996;6.278;2023-01-08T14:39:10;4.93;;;2.40;;
51862;SDS011;37900;52.996;6.278;2023-01-08T14:41:49;3.35;;;2.30;;
51862;SDS011;37900;52.996;6.278;2023-01-08T14:44:35;3.30;;;2.30;;
51862;SDS011;37900;52.996;6.278;2023-01-08T14:47:02;4.28;;;2.15;;
51862;SDS011;37900;52.996;6.278;2023-01-08T14:49:29;3.17;;;1.77;;
51862;SDS011;37900;52.996;6.278;2023-01-08T14:51:58;2.80;;;1.73;;
51862;SDS011;37900;52.996;6.278;2023-01-08T14:54:27;3.38;;;2.30;;
51862;SDS011;37900;52.996;6.278;2023-01-08T14:56:57;4.97;;;2.28;;
51862;SDS011;37900;52.996;6.278;2023-01-08T14:59:25;2.78;;;1.85;;
51862;SDS011;37900;52.996;6.278;2023-01-08T15:01:56;3.15;;;2.05;;
51862;SDS011;37900;52.996;6.278;2023-01-08T15:04:26;4.53;;;1.92;;
51862;SDS011;37900;52.996;6.278;2023-01-08T15:07:03;2.70;;;1.73;;
51862;SDS011;37900;52.996;6.278;2023-01-08T15:09:55;3.13;;;1.53;;
51862;SDS011;37900;52.996;6.278;2023-01-08T15:12:29;2.70;;;1.60;;
51862;SDS011;37900;52.996;6.278;2023-01-08T15:15:07;3.08;;;2.00;;
51862;SDS011;37900;52.996;6.278;2023-01-08T15:17:34;4.25;;;1.98;;
51862;SDS011;37900;52.996;6.278;2023-01-08T15:19:59;3.17;;;1.88;;
51862;SDS011;37900;52.996;6.278;2023-01-08T15:22:26;2.97;;;1.70;;
51862;SDS011;37900;52.996;6.278;2023-01-08T15:24:55;2.53;;;1.83;;
51862;SDS011;37900;52.996;6.278;2023-01-08T15:27:23;3.13;;;2.08;;
51862;SDS011;37900;52.996;6.278;2023-01-08T15:29:51;2.47;;;1.60;;
51862;SDS011;37900;52.996;6.278;2023-01-08T15:32:31;2.00;;;1.40;;
51862;SDS011;37900;52.996;6.278;2023-01-08T15:35:12;4.10;;;1.90;;
51862;SDS011;37900;52.996;6.278;2023-01-08T15:37:39;4.32;;;1.65;;
51862;SDS011;37900;52.996;6.278;2023-01-08T15:40:06;2.92;;;2.33;;
51862;SDS011;37900;52.996;6.278;2023-01-08T15:42:33;3.58;;;2.03;;
51862;SDS011;37900;52.996;6.278;2023-01-08T15:45:19;3.78;;;1.80;;
51862;SDS011;37900;52.996;6.278;2023-01-08T15:47:46;3.53;;;2.00;;
51862;SDS011;37900;52.996;6.278;2023-01-08T15:50:12;2.25;;;1.98;;
51862;SDS011;37900;52.996;6.278;2023-01-08T15:52:39;5.25;;;2.92;;
51862;SDS011;37900;52.996;6.278;2023-01-08T15:55:08;4.65;;;1.70;;
51862;SDS011;37900;52.996;6.278;2023-01-08T15:57:39;4.10;;;1.60;;
51862;SDS011;37900;52.996;6.278;2023-01-08T16:00:05;1.40;;;1.30;;
51862;SDS011;37900;52.996;6.278;2023-01-08T16:02:39;2.77;;;1.60;;
51862;SDS011;37900;52.996;6.278;2023-01-08T16:05:09;3.22;;;1.80;;
51862;SDS011;37900;52.996;6.278;2023-01-08T16:07:35;3.33;;;1.88;;
51862;SDS011;37900;52.996;6.278;2023-01-08T16:10:01;2.50;;;1.75;;
51862;SDS011;37900;52.996;6.278;2023-01-08T16:12:27;3.47;;;1.75;;
51862;SDS011;37900;52.996;6.278;2023-01-08T16:14:52;2.75;;;1.50;;
51862;SDS011;37900;52.996;6.278;2023-01-08T16:17:18;1.77;;;1.20;;
51862;SDS011;37900;52.996;6.278;2023-01-08T16:19:44;2.10;;;1.65;;
51862;SDS011;37900;52.996;6.278;2023-01-08T16:22:10;2.00;;;1.50;;
51862;SDS011;37900;52.996;6.278;2023-01-08T16:24:35;3.88;;;1.90;;
51862;SDS011;37900;52.996;6.278;2023-01-08T16:27:01;2.10;;;1.60;;
51862;SDS011;37900;52.996;6.278;2023-01-08T16:29:27;2.78;;;1.60;;
51862;SDS011;37900;52.996;6.278;2023-01-08T16:31:53;2.75;;;1.90;;
51862;SDS011;37900;52.996;6.278;2023-01-08T16:34:19;2.15;;;1.45;;
51862;SDS011;37900;52.996;6.278;2023-01-08T16:36:46;2.40;;;1.70;;
51862;SDS011;37900;52.996;6.278;2023-01-08T16:39:12;2.97;;;1.80;;
51862;SDS011;37900;52.996;6.278;2023-01-08T16:41:38;2.15;;;1.25;;
51862;SDS011;37900;52.996;6.278;2023-01-08T16:44:04;2.28;;;1.30;;
51862;SDS011;37900;52.996;6.278;2023-01-08T16:46:30;1.48;;;1.30;;
51862;SDS011;37900;52.996;6.278;2023-01-08T16:48:56;2.47;;;1.70;;
51862;SDS011;37900;52.996;6.278;2023-01-08T16:51:22;4.55;;;1.73;;
51862;SDS011;37900;52.996;6.278;2023-01-08T16:53:50;2.17;;;1.20;;
51862;SDS011;37900;52.996;6.278;2023-01-08T16:56:15;2.72;;;1.85;;
51862;SDS011;37900;52.996;6.278;2023-01-08T16:58:41;2.20;;;1.40;;
51862;SDS011;37900;52.996;6.278;2023-01-08T17:01:08;1.88;;;1.38;;
51862;SDS011;37900;52.996;6.278;2023-01-08T17:06:07;1.67;;;1.30;;